createdAt,value
2018-05-17T00:00:30.378Z,96.32
2018-05-17T00:01:39.879Z,94.98
2018-05-17T00:02:48.744Z,95.27
2018-05-17T00:03:57.896Z,95.46
2018-05-17T00:05:06.746Z,95.56
2018-05-17T00:06:15.605Z,94.89
2018-05-17T00:07:24.563Z,95.36
2018-05-17T00:08:33.428Z,94.89
2018-05-17T00:09:42.287Z,95.08
2018-05-17T00:10:51.145Z,95.41
2018-05-17T00:12:00.003Z,94.89
2018-05-17T00:13:09.014Z,94.6
2018-05-17T00:14:17.872Z,94.6
2018-05-17T00:15:26.732Z,95.36
2018-05-17T00:16:35.590Z,95.12
2018-05-17T00:17:44.452Z,95.7
2018-05-17T00:18:53.362Z,95.51
2018-05-17T00:20:02.222Z,95.98
2018-05-17T00:21:11.078Z,95.7
2018-05-17T00:22:20.214Z,95.98
2018-05-17T00:23:29.350Z,95.79
2018-05-17T00:24:38.313Z,95.79
2018-05-17T00:25:47.448Z,95.79
2018-05-17T00:26:56.589Z,96.08
2018-05-17T00:28:05.448Z,96.27
2018-05-17T00:29:14.306Z,95.61
2018-05-17T00:30:23.414Z,95.51
2018-05-17T00:31:32.274Z,95.51
2018-05-17T00:32:41.410Z,95.7
2018-05-17T00:33:50.269Z,94.93
2018-05-17T00:34:59.407Z,95.22
2018-05-17T00:36:08.618Z,95.7
2018-05-17T00:37:17.485Z,95.12
2018-05-17T00:38:26.344Z,94.56
2018-05-17T00:39:35.203Z,95.22
2018-05-17T00:40:44.064Z,95.32
2018-05-17T00:41:53.275Z,94.65
2018-05-17T00:43:02.137Z,95.61
2018-05-17T00:44:10.993Z,95.41
2018-05-17T00:45:19.857Z,95.98
2018-05-17T00:46:28.715Z,96.37
2018-05-17T00:47:37.725Z,96.17
2018-05-17T00:48:46.583Z,95.89
2018-05-17T00:49:55.440Z,95.89
2018-05-17T00:51:04.300Z,95.32
2018-05-17T00:52:13.161Z,95.7
2018-05-17T00:53:22.299Z,95.12
2018-05-17T00:54:31.435Z,95.03
2018-05-17T00:55:40.571Z,95.03
2018-05-17T00:56:49.711Z,94.84
2018-05-17T00:57:58.572Z,95.51
2018-05-17T00:59:07.770Z,94.65
2018-05-17T01:00:16.623Z,94.93
2018-05-17T01:01:25.543Z,95.03
2018-05-17T01:02:34.622Z,96.08
2018-05-17T01:03:43.483Z,96.98
2018-05-17T01:04:52.691Z,96.08
2018-05-17T01:06:01.555Z,96.17
2018-05-17T01:07:10.408Z,97.22
2018-05-17T01:08:19.270Z,96.89
2018-05-17T01:09:28.130Z,96.17
2018-05-17T01:10:37.320Z,95.75
2018-05-17T01:11:46.176Z,96.37
2018-05-17T01:12:55.035Z,96.22
2018-05-17T01:14:03.896Z,96.03
2018-05-17T01:15:12.755Z,95.51
2018-05-17T01:16:21.616Z,95.89
2018-05-17T01:17:30.475Z,95.98
2018-05-17T01:18:39.334Z,95.03
2018-05-17T01:19:48.470Z,94.93
2018-05-17T01:20:57.882Z,95.32
2018-05-17T01:22:07.182Z,95.7
2018-05-17T01:23:16.316Z,95.27
2018-05-17T01:24:25.177Z,95.51
2018-05-17T01:25:34.035Z,95.7
2018-05-17T01:26:42.894Z,94.84
2018-05-17T01:27:52.055Z,95.03
2018-05-17T01:29:00.915Z,95.7
2018-05-17T01:30:09.775Z,94.65
2018-05-17T01:31:18.634Z,94.84
2018-05-17T01:32:27.495Z,94.84
2018-05-17T01:33:36.352Z,95.22
2018-05-17T01:34:45.210Z,94.84
2018-05-17T01:35:54.353Z,95.03
2018-05-17T01:37:03.500Z,94.36
2018-05-17T01:38:12.353Z,94.93
2018-05-17T01:39:21.562Z,96.17
2018-05-17T01:40:30.698Z,95.84
2018-05-17T01:41:39.563Z,96.7
2018-05-17T01:42:48.700Z,96.13
2018-05-17T01:43:57.563Z,95.94
2018-05-17T01:45:07.054Z,96.22
2018-05-17T01:46:15.913Z,95.56
2018-05-17T01:47:24.774Z,94.74
2018-05-17T01:48:33.908Z,95.03
2018-05-17T01:49:42.768Z,95.08
2018-05-17T01:50:51.678Z,95.46
2018-05-17T01:52:00.535Z,95.7
2018-05-17T01:53:09.674Z,95.94
2018-05-17T01:54:18.535Z,96.03
2018-05-17T01:55:27.393Z,96.13
2018-05-17T01:56:36.527Z,95.37
2018-05-17T01:57:45.386Z,95.65
2018-05-17T01:58:54.246Z,95.51
2018-05-17T02:00:03.384Z,95.56
2018-05-17T02:01:12.243Z,95.46
2018-05-17T02:02:21.377Z,95.94
2018-05-17T02:03:30.242Z,95.94
2018-05-17T02:04:39.099Z,95.94
2018-05-17T02:05:48.236Z,95.94
2018-05-17T02:06:57.094Z,95.94
2018-05-17T02:08:06.002Z,96.13
2018-05-17T02:09:14.863Z,94.89
2018-05-17T02:10:23.723Z,94.6
2018-05-17T02:11:32.583Z,95.46
2018-05-17T02:12:41.722Z,95.46
2018-05-17T02:13:50.831Z,95.46
2018-05-17T02:14:59.697Z,95.94
2018-05-17T02:16:08.833Z,94.98
2018-05-17T02:17:18.251Z,94.56
2018-05-17T02:18:27.109Z,94.89
2018-05-17T02:19:36.027Z,95.37
2018-05-17T02:20:45.163Z,95.46
2018-05-17T02:21:54.307Z,95.56
2018-05-17T02:23:03.998Z,95.46
2018-05-17T02:24:12.861Z,95.08
2018-05-17T02:25:22.044Z,95.17
2018-05-17T02:26:30.905Z,94.98
2018-05-17T02:27:40.329Z,94.27
2018-05-17T02:28:49.185Z,94.27
2018-05-17T02:29:58.044Z,94.98
2018-05-17T02:31:07.191Z,94.89
2018-05-17T02:32:16.051Z,95.65
2018-05-17T02:33:25.491Z,95.56
2018-05-17T02:34:34.631Z,96.03
2018-05-17T02:35:43.771Z,96.03
2018-05-17T02:36:52.907Z,95.37
2018-05-17T02:38:02.060Z,95.56
2018-05-17T02:39:10.922Z,95.37
2018-05-17T02:40:19.797Z,95.27
2018-05-17T02:41:28.937Z,95.27
2018-05-17T02:42:38.227Z,95.37
2018-05-17T02:43:47.082Z,95.65
2018-05-17T02:44:56.500Z,95.08
2018-05-17T02:46:05.360Z,95.46
2018-05-17T02:47:14.774Z,95.46
2018-05-17T02:48:23.738Z,94.89
2018-05-17T02:49:32.611Z,95.37
2018-05-17T02:50:42.054Z,94.51
2018-05-17T02:51:51.758Z,93.84
2018-05-17T02:53:00.618Z,94.12
2018-05-17T02:54:09.629Z,94.6
2018-05-17T02:55:18.488Z,94.03
2018-05-17T02:56:27.635Z,95.08
2018-05-17T02:57:36.777Z,95.08
2018-05-17T02:58:45.924Z,94.03
2018-05-17T02:59:54.780Z,94.41
2018-05-17T03:01:03.643Z,94.6
2018-05-17T03:02:12.504Z,94.03
2018-05-17T03:03:21.645Z,93.93
2018-05-17T03:04:30.507Z,95.17
2018-05-17T03:05:39.366Z,94.89
2018-05-17T03:06:48.232Z,94.89
2018-05-17T03:07:57.371Z,95.17
2018-05-17T03:09:06.231Z,94.7
2018-05-17T03:10:15.367Z,95.08
2018-05-17T03:11:24.560Z,94.12
2018-05-17T03:12:33.694Z,93.93
2018-05-17T03:13:42.845Z,94.03
2018-05-17T03:14:51.991Z,94.32
2018-05-17T03:16:01.127Z,94.98
2018-05-17T03:17:10.615Z,94.22
2018-05-17T03:18:19.475Z,94.41
2018-05-17T03:19:28.332Z,94.51
2018-05-17T03:20:37.472Z,94.79
2018-05-17T03:21:46.331Z,94.22
2018-05-17T03:22:55.288Z,94.7
2018-05-17T03:24:04.150Z,94.22
2018-05-17T03:25:13.007Z,94.6
2018-05-17T03:26:21.865Z,94.79
2018-05-17T03:27:30.724Z,94.74
2018-05-17T03:28:39.841Z,94.89
2018-05-17T03:29:48.699Z,94.89
2018-05-17T03:30:57.835Z,94.79
2018-05-17T03:32:07.542Z,94.89
2018-05-17T03:33:16.405Z,94.6
2018-05-17T03:34:25.416Z,94.22
2018-05-17T03:35:34.275Z,94.12
2018-05-17T03:36:43.422Z,94.41
2018-05-17T03:37:52.270Z,95.46
2018-05-17T03:39:01.132Z,95.41
2018-05-17T03:40:10.630Z,95.22
2018-05-17T03:41:19.488Z,95.37
2018-05-17T03:42:28.631Z,94.98
2018-05-17T03:43:37.490Z,95.08
2018-05-17T03:44:46.356Z,95.32
2018-05-17T03:45:55.310Z,95.46
2018-05-17T03:47:04.470Z,95.56
2018-05-17T03:48:13.330Z,95.41
2018-05-17T03:49:22.473Z,94.46
2018-05-17T03:50:31.332Z,95.03
2018-05-17T03:51:40.243Z,94.56
2018-05-17T03:52:49.422Z,94.65
2018-05-17T03:53:58.279Z,94.93
2018-05-17T03:55:07.140Z,95.12
2018-05-17T03:56:15.998Z,94.74
2018-05-17T03:57:25.239Z,94.65
2018-05-17T03:58:34.376Z,94.79
2018-05-17T03:59:43.236Z,95.61
2018-05-17T04:00:52.096Z,95.22
2018-05-17T04:02:00.957Z,95.89
2018-05-17T04:03:09.916Z,95.61
2018-05-17T04:04:18.780Z,95.79
2018-05-17T04:05:27.643Z,95.61
2018-05-17T04:06:36.784Z,94.27
2018-05-17T04:07:45.930Z,95.12
2018-05-17T04:08:54.792Z,94.32
2018-05-17T04:10:03.652Z,94.65
2018-05-17T04:11:13.076Z,94.46
2018-05-17T04:12:22.495Z,94.08
2018-05-17T04:13:31.356Z,94.12
2018-05-17T04:14:40.665Z,94.08
2018-05-17T04:15:49.525Z,93.08
2018-05-17T04:16:58.664Z,93.74
2018-05-17T04:18:07.799Z,94.27
2018-05-17T04:19:16.945Z,94.7
2018-05-17T04:20:26.430Z,94.37
2018-05-17T04:21:35.296Z,95.03
2018-05-17T04:22:44.155Z,94.93
2018-05-17T04:23:53.294Z,95.41
2018-05-17T04:25:02.153Z,94.74
2018-05-17T04:26:11.166Z,95.03
2018-05-17T04:27:20.023Z,94.74
2018-05-17T04:28:28.887Z,94.74
2018-05-17T04:29:37.745Z,94.27
2018-05-17T04:30:46.604Z,94.08
2018-05-17T04:31:55.813Z,94.56
2018-05-17T04:33:04.675Z,94.46
2018-05-17T04:34:13.864Z,94.46
2018-05-17T04:35:22.724Z,94.46
2018-05-17T04:36:31.589Z,94.65
2018-05-17T04:37:40.446Z,94.65
2018-05-17T04:38:49.578Z,94.27
2018-05-17T04:39:58.758Z,94.27
2018-05-17T04:41:07.616Z,95.41
2018-05-17T04:42:16.753Z,94.93
2018-05-17T04:43:26.048Z,95.12
2018-05-17T04:44:34.909Z,94.37
2018-05-17T04:45:44.042Z,94.08
2018-05-17T04:46:52.899Z,94.56
2018-05-17T04:48:01.767Z,94.74
2018-05-17T04:49:10.673Z,94.93
2018-05-17T04:50:19.533Z,95.22
2018-05-17T04:51:28.396Z,94.74
2018-05-17T04:52:37.254Z,93.88
2018-05-17T04:53:46.113Z,94.17
2018-05-17T04:54:55.122Z,93.88
2018-05-17T04:56:04.264Z,94.56
2018-05-17T04:57:13.402Z,93.98
2018-05-17T04:58:22.266Z,94.03
2018-05-17T04:59:31.418Z,94.17
2018-05-17T05:00:40.659Z,93.65
2018-05-17T05:01:50.159Z,93.98
2018-05-17T05:02:59.042Z,93.6
2018-05-17T05:04:08.467Z,93.46
2018-05-17T05:05:17.326Z,93.27
2018-05-17T05:06:26.191Z,93.79
2018-05-17T05:07:35.048Z,93.27
2018-05-17T05:08:43.911Z,93.46
2018-05-17T05:09:52.770Z,93.55
2018-05-17T05:11:01.629Z,93.55
2018-05-17T05:12:10.637Z,93.08
2018-05-17T05:13:19.780Z,92.88
2018-05-17T05:14:29.193Z,92.93
2018-05-17T05:15:38.333Z,93.55
2018-05-17T05:16:47.193Z,93.08
2018-05-17T05:17:56.406Z,93.36
2018-05-17T05:19:05.264Z,93.55
2018-05-17T05:20:14.176Z,93.55
2018-05-17T05:21:22.983Z,92.98
2018-05-17T05:22:32.121Z,93.27
2018-05-17T05:23:41.130Z,92.79
2018-05-17T05:24:49.988Z,93.36
2018-05-17T05:25:58.845Z,94.32
2018-05-17T05:27:07.710Z,93.74
2018-05-17T05:28:16.571Z,93.98
2018-05-17T05:29:25.581Z,93.36
2018-05-17T05:30:34.446Z,93.65
2018-05-17T05:31:43.304Z,94.12
2018-05-17T05:32:52.163Z,93.65
2018-05-17T05:34:01.023Z,94.03
2018-05-17T05:35:09.882Z,93.93
2018-05-17T05:36:19.304Z,94.41
2018-05-17T05:37:28.227Z,93.7
2018-05-17T05:38:37.374Z,93.84
2018-05-17T05:39:46.231Z,93.84
2018-05-17T05:40:55.443Z,94.17
2018-05-17T05:42:04.304Z,94.56
2018-05-17T05:43:13.198Z,94.17
2018-05-17T05:44:22.371Z,94.32
2018-05-17T05:45:31.235Z,94.03
2018-05-17T05:46:40.154Z,93.55
2018-05-17T05:47:49.294Z,94.12
2018-05-17T05:48:58.153Z,94.41
2018-05-17T05:50:07.013Z,94.41
2018-05-17T05:51:15.876Z,94.7
2018-05-17T05:52:24.793Z,94.7
2018-05-17T05:53:33.652Z,94.03
2018-05-17T05:54:42.791Z,94.03
2018-05-17T05:55:51.655Z,94.12
2018-05-17T05:57:00.788Z,94.6
2018-05-17T05:58:09.999Z,94.89
2018-05-17T05:59:18.861Z,94.98
2018-05-17T06:00:27.725Z,94.7
2018-05-17T06:01:36.584Z,95.17
2018-05-17T06:02:45.446Z,95.94
2018-05-17T06:03:54.408Z,95.7
2018-05-17T06:05:03.269Z,95.7
2018-05-17T06:06:12.415Z,95.56
2018-05-17T06:07:21.554Z,94.79
2018-05-17T06:08:30.868Z,94.51
2018-05-17T06:09:39.829Z,95.56
2018-05-17T06:10:48.966Z,95.94
2018-05-17T06:11:57.825Z,95.41
2018-05-17T06:13:06.786Z,94.41
2018-05-17T06:14:15.644Z,94.6
2018-05-17T06:15:24.984Z,93.98
2018-05-17T06:16:33.846Z,94.41
2018-05-17T06:17:42.706Z,94.79
2018-05-17T06:18:51.844Z,95.17
2018-05-17T06:20:00.704Z,95.56
2018-05-17T06:21:09.665Z,95.56
2018-05-17T06:22:18.526Z,96.03
2018-05-17T06:23:27.390Z,95.46
2018-05-17T06:24:36.250Z,95.27
2018-05-17T06:25:45.111Z,94.7
2018-05-17T06:26:54.122Z,94.32
2018-05-17T06:28:02.983Z,95.41
2018-05-17T06:29:11.838Z,95.51
2018-05-17T06:30:20.717Z,95.22
2018-05-17T06:31:29.560Z,94.56
2018-05-17T06:32:38.521Z,93.84
2018-05-17T06:33:47.381Z,94.22
2018-05-17T06:34:56.242Z,93.93
2018-05-17T06:36:05.104Z,94.56
2018-05-17T06:37:13.965Z,94.41
2018-05-17T06:38:22.876Z,93.74
2018-05-17T06:39:31.743Z,93.74
2018-05-17T06:40:40.600Z,93.93
2018-05-17T06:41:49.461Z,94.89
2018-05-17T06:42:58.600Z,94.32
2018-05-17T06:44:07.798Z,94.32
2018-05-17T06:45:16.935Z,94.03
2018-05-17T06:46:26.072Z,93.36
2018-05-17T06:47:34.932Z,93.36
2018-05-17T06:48:43.793Z,93.36
2018-05-17T06:49:52.651Z,93.36
2018-05-17T06:51:01.515Z,94.03
2018-05-17T06:52:10.372Z,94.12
2018-05-17T06:53:19.515Z,94.12
2018-05-17T06:54:28.375Z,93.93
2018-05-17T06:55:37.563Z,94.6
2018-05-17T06:56:46.706Z,93.98
2018-05-17T06:57:55.567Z,93.65
2018-05-17T06:59:04.431Z,93.65
2018-05-17T07:00:13.618Z,94.03
2018-05-17T07:01:22.628Z,93.74
2018-05-17T07:02:31.489Z,93.74
2018-05-17T07:03:40.360Z,93.74
2018-05-17T07:04:49.499Z,93.98
2018-05-17T07:05:58.363Z,94.27
2018-05-17T07:07:07.655Z,93.46
2018-05-17T07:08:16.516Z,94.12
2018-05-17T07:09:25.389Z,93.08
2018-05-17T07:10:34.262Z,93.46
2018-05-17T07:11:43.416Z,93.55
2018-05-17T07:12:52.610Z,92.79
2018-05-17T07:14:01.470Z,92.79
2018-05-17T07:15:10.618Z,92.79
2018-05-17T07:16:19.477Z,92.5
2018-05-17T07:17:28.344Z,92.41
2018-05-17T07:18:38.061Z,92.5
2018-05-17T07:19:46.801Z,93.17
2018-05-17T07:20:55.658Z,92.79
2018-05-17T07:22:04.523Z,93.36
2018-05-17T07:23:13.381Z,93.74
2018-05-17T07:24:22.389Z,93.55
2018-05-17T07:25:31.534Z,93.08
2018-05-17T07:26:40.671Z,93.27
2018-05-17T07:27:49.532Z,92.79
2018-05-17T07:28:58.393Z,93.08
2018-05-17T07:30:07.836Z,92.88
2018-05-17T07:31:16.748Z,93.65
2018-05-17T07:32:25.866Z,93.27
2018-05-17T07:33:35.008Z,93.36
2018-05-17T07:34:43.870Z,93.17
2018-05-17T07:35:52.778Z,92.41
2018-05-17T07:37:01.918Z,93.55
2018-05-17T07:38:11.056Z,93.03
2018-05-17T07:39:20.003Z,93.98
2018-05-17T07:40:29.101Z,93.7
2018-05-17T07:41:38.012Z,93.32
2018-05-17T07:42:46.877Z,92.03
2018-05-17T07:43:55.738Z,92.98
2018-05-17T07:45:04.600Z,93.32
2018-05-17T07:46:13.661Z,93.93
2018-05-17T07:47:22.871Z,93.84
2018-05-17T07:48:32.019Z,94.03
2018-05-17T07:49:40.872Z,92.6
2018-05-17T07:50:49.731Z,91.93
2018-05-17T07:51:58.592Z,92.03
2018-05-17T07:53:07.803Z,92.12
2018-05-17T07:54:16.944Z,92.03
2018-05-17T07:55:25.803Z,92.41
2018-05-17T07:56:34.959Z,93.12
2018-05-17T07:57:43.821Z,92.36
2018-05-17T07:58:52.780Z,92.12
2018-05-17T08:00:01.640Z,92.41
2018-05-17T08:01:10.501Z,92.22
2018-05-17T08:02:19.360Z,92.5
2018-05-17T08:03:28.223Z,92.98
2018-05-17T08:04:37.082Z,91.79
2018-05-17T08:05:45.944Z,91.98
2018-05-17T08:06:54.802Z,91.46
2018-05-17T08:08:03.661Z,91.83
2018-05-17T08:09:12.531Z,91.74
2018-05-17T08:10:21.745Z,91.64
2018-05-17T08:11:30.603Z,91.83
2018-05-17T08:12:39.466Z,90.98
2018-05-17T08:13:48.327Z,90.88
2018-05-17T08:14:57.192Z,90.98
2018-05-17T08:16:06.151Z,91.07
2018-05-17T08:17:15.021Z,91.83
2018-05-17T08:18:23.882Z,91.36
2018-05-17T08:19:32.745Z,90.88
2018-05-17T08:20:41.880Z,90.59
2018-05-17T08:21:50.891Z,91.07
2018-05-17T08:22:59.751Z,90.55
2018-05-17T08:24:08.902Z,90.36
2018-05-17T08:25:17.764Z,90.5
2018-05-17T08:26:26.903Z,90.26
2018-05-17T08:27:36.294Z,90.55
2018-05-17T08:28:45.157Z,90.93
2018-05-17T08:29:54.346Z,90.64
2018-05-17T08:31:03.206Z,90.93
2018-05-17T08:32:12.392Z,91.02
2018-05-17T08:33:21.963Z,90.93
2018-05-17T08:34:30.824Z,91.69
2018-05-17T08:35:39.690Z,90.93
2018-05-17T08:36:48.668Z,89.78
2018-05-17T08:37:57.829Z,89.88
2018-05-17T08:39:06.971Z,89.88
2018-05-17T08:40:15.839Z,90.64
2018-05-17T08:41:24.699Z,91.02
2018-05-17T08:42:33.614Z,91.21
2018-05-17T08:43:43.058Z,91.78
2018-05-17T08:44:52.533Z,89.69
2018-05-17T08:46:01.394Z,89.88
2018-05-17T08:47:10.257Z,89.97
2018-05-17T08:48:19.405Z,90.55
2018-05-17T08:49:28.545Z,90.07
2018-05-17T08:50:37.761Z,90.93
2018-05-17T08:51:46.624Z,89.69
2018-05-17T08:52:55.486Z,89.88
2018-05-17T08:54:04.632Z,90.26
2018-05-17T08:55:13.777Z,90.17
2018-05-17T08:56:23.075Z,90.21
2018-05-17T08:57:32.217Z,90.07
2018-05-17T08:58:41.362Z,89.5
2018-05-17T08:59:50.250Z,89.78
2018-05-17T09:00:59.086Z,89.88
2018-05-17T09:02:08.197Z,89.78
2018-05-17T09:03:17.068Z,88.78
2018-05-17T09:04:25.925Z,89.12
2018-05-17T09:05:34.787Z,89.78
2018-05-17T09:06:43.650Z,89.5
2018-05-17T09:07:52.612Z,89.69
2018-05-17T09:09:01.473Z,89.78
2018-05-17T09:10:10.350Z,89.02
2018-05-17T09:11:19.487Z,88.64
2018-05-17T09:12:28.351Z,88.97
2018-05-17T09:13:37.337Z,88.83
2018-05-17T09:14:46.612Z,89.31
2018-05-17T09:15:55.473Z,88.87
2018-05-17T09:17:04.338Z,88.97
2018-05-17T09:18:13.479Z,89.4
2018-05-17T09:19:22.715Z,89.4
2018-05-17T09:20:31.688Z,88.83
2018-05-17T09:21:40.441Z,88.64
2018-05-17T09:22:49.308Z,88.68
2018-05-17T09:23:58.170Z,88.59
2018-05-17T09:25:07.690Z,88.87
2018-05-17T09:26:16.551Z,89.25
2018-05-17T09:27:25.416Z,89.73
2018-05-17T09:28:34.274Z,89.64
2018-05-17T09:29:43.417Z,89.35
2018-05-17T09:30:52.392Z,89.16
2018-05-17T09:32:01.532Z,88.4
2018-05-17T09:33:10.395Z,88.2
2018-05-17T09:34:19.256Z,87.63
2018-05-17T09:35:28.119Z,88.2
2018-05-17T09:36:37.278Z,88.11
2018-05-17T09:37:46.430Z,87.92
2018-05-17T09:38:55.282Z,88.06
2018-05-17T09:40:04.423Z,88.4
2018-05-17T09:41:13.287Z,88.15
2018-05-17T09:42:22.148Z,87.92
2018-05-17T09:43:31.013Z,87.92
2018-05-17T09:44:39.877Z,88.2
2018-05-17T09:45:48.741Z,88.11
2018-05-17T09:46:57.880Z,88.11
2018-05-17T09:48:06.844Z,88.68
2018-05-17T09:49:15.987Z,88.11
2018-05-17T09:50:25.130Z,87.68
2018-05-17T09:51:34.270Z,87.39
2018-05-17T09:52:43.409Z,87.29
2018-05-17T09:53:52.325Z,87.39
2018-05-17T09:55:01.279Z,87.29
2018-05-17T09:56:10.053Z,87.58
2018-05-17T09:57:18.912Z,87.58
2018-05-17T09:58:27.775Z,88.06
2018-05-17T09:59:36.698Z,87.68
2018-05-17T10:00:45.559Z,87.58
2018-05-17T10:01:54.421Z,86.63
2018-05-17T10:03:03.285Z,87.05
2018-05-17T10:04:12.154Z,87.15
2018-05-17T10:05:21.069Z,86.91
2018-05-17T10:06:29.928Z,86.96
2018-05-17T10:07:38.795Z,86.19
2018-05-17T10:08:48.304Z,86.29
2018-05-17T10:09:57.094Z,86.38
2018-05-17T10:11:06.109Z,87.34
2018-05-17T10:12:14.973Z,87.29
2018-05-17T10:13:23.836Z,87.39
2018-05-17T10:14:32.730Z,87.91
2018-05-17T10:15:42.694Z,87.34
2018-05-17T10:16:51.708Z,86.1
2018-05-17T10:18:00.853Z,86.29
2018-05-17T10:19:09.720Z,85.42
2018-05-17T10:20:18.864Z,85.52
2018-05-17T10:21:27.728Z,86.38
2018-05-17T10:22:36.926Z,86.47
2018-05-17T10:23:45.786Z,86.1
2018-05-17T10:24:54.649Z,86.29
2018-05-17T10:26:03.517Z,86
2018-05-17T10:27:12.381Z,85.42
2018-05-17T10:28:21.572Z,86.1
2018-05-17T10:29:30.515Z,86.1
2018-05-17T10:30:40.242Z,86.67
2018-05-17T10:31:49.400Z,86.96
2018-05-17T10:32:58.266Z,86.1
2018-05-17T10:34:07.409Z,86.1
2018-05-17T10:35:16.275Z,86.1
2018-05-17T10:36:25.415Z,86.04
2018-05-17T10:37:34.280Z,85.42
2018-05-17T10:38:43.147Z,85.57
2018-05-17T10:39:52.110Z,85.28
2018-05-17T10:41:00.974Z,85.66
2018-05-17T10:42:09.903Z,85.85
2018-05-17T10:43:19.374Z,85.94
2018-05-17T10:44:28.238Z,85.47
2018-05-17T10:45:37.552Z,85.66
2018-05-17T10:46:46.692Z,85.28
2018-05-17T10:47:55.553Z,84.99
2018-05-17T10:49:04.759Z,85.18
2018-05-17T10:50:14.125Z,85.75
2018-05-17T10:51:23.347Z,85.47
2018-05-17T10:52:32.484Z,84.99
2018-05-17T10:53:41.629Z,85.66
2018-05-17T10:54:50.490Z,85.57
2018-05-17T10:55:59.355Z,85.28
2018-05-17T10:57:08.647Z,85.28
2018-05-17T10:58:17.508Z,84.7
2018-05-17T10:59:26.373Z,84.42
2018-05-17T11:00:35.240Z,84.32
2018-05-17T11:01:44.101Z,85.18
2018-05-17T11:02:53.115Z,85.38
2018-05-17T11:04:01.986Z,85.28
2018-05-17T11:05:11.410Z,85.47
2018-05-17T11:06:20.276Z,86.33
2018-05-17T11:07:29.140Z,85.75
2018-05-17T11:08:38.103Z,85.47
2018-05-17T11:09:46.967Z,85.47
2018-05-17T11:10:55.832Z,86.14
2018-05-17T11:12:04.989Z,85.85
2018-05-17T11:13:14.428Z,85.85
2018-05-17T11:14:23.343Z,86.33
2018-05-17T11:15:32.205Z,86.04
2018-05-17T11:16:41.347Z,86.33
2018-05-17T11:17:50.212Z,85.66
2018-05-17T11:18:59.074Z,85.66
2018-05-17T11:20:07.989Z,86.52
2018-05-17T11:21:16.852Z,86.37
2018-05-17T11:22:25.716Z,86.14
2018-05-17T11:23:34.577Z,85.94
2018-05-17T11:24:43.440Z,86.33
2018-05-17T11:25:52.433Z,86.76
2018-05-17T11:27:01.900Z,85.51
2018-05-17T11:28:11.043Z,86.37
2018-05-17T11:29:19.908Z,85.94
2018-05-17T11:30:28.770Z,85.32
2018-05-17T11:31:37.784Z,85.99
2018-05-17T11:32:46.650Z,85.51
2018-05-17T11:33:55.512Z,85.28
2018-05-17T11:35:04.377Z,85.94
2018-05-17T11:36:13.251Z,86.04
2018-05-17T11:37:22.495Z,85.32
2018-05-17T11:38:31.675Z,86.28
2018-05-17T11:39:40.502Z,86.37
2018-05-17T11:40:49.643Z,85.99
2018-05-17T11:41:58.783Z,85.32
2018-05-17T11:43:08.074Z,85.13
2018-05-17T11:44:17.343Z,85.61
2018-05-17T11:45:26.486Z,85.32
2018-05-17T11:46:35.351Z,85.51
2018-05-17T11:47:44.216Z,85.99
2018-05-17T11:48:53.181Z,86.8
2018-05-17T11:50:02.319Z,86.61
2018-05-17T11:51:11.182Z,87.38
2018-05-17T11:52:20.046Z,87.95
2018-05-17T11:53:28.909Z,88.43
2018-05-17T11:54:37.769Z,88.05
2018-05-17T11:55:46.634Z,88.34
2018-05-17T11:56:56.051Z,88.53
2018-05-17T11:58:04.916Z,89.01
2018-05-17T11:59:13.780Z,88.81
2018-05-17T12:00:23.022Z,89.15
2018-05-17T12:01:31.916Z,89.73
2018-05-17T12:02:41.284Z,89.92
2018-05-17T12:03:50.073Z,89.92
2018-05-17T12:04:58.937Z,90.2
2018-05-17T12:06:07.849Z,90.01
2018-05-17T12:07:17.161Z,89.77
2018-05-17T12:08:27.036Z,89.77
2018-05-17T12:09:36.255Z,90.25
2018-05-17T12:10:45.122Z,89.58
2018-05-17T12:11:54.130Z,89.96
2018-05-17T12:13:03.325Z,89.48
2018-05-17T12:14:12.201Z,89.39
2018-05-17T12:15:21.348Z,89.1
2018-05-17T12:16:30.522Z,89.39
2018-05-17T12:17:40.528Z,89.77
2018-05-17T12:18:49.389Z,90.06
2018-05-17T12:19:58.592Z,90.49
2018-05-17T12:21:07.465Z,91.16
2018-05-17T12:22:16.605Z,91.25
2018-05-17T12:23:25.797Z,90.88
2018-05-17T12:24:34.939Z,90.88
2018-05-17T12:25:44.097Z,90.88
2018-05-17T12:26:53.509Z,92.02
2018-05-17T12:28:02.372Z,91.35
2018-05-17T12:29:11.304Z,91.74
2018-05-17T12:30:20.167Z,91.35
2018-05-17T12:31:29.099Z,91.16
2018-05-17T12:32:38.313Z,92.4
2018-05-17T12:33:47.466Z,91.54
2018-05-17T12:34:56.711Z,91.64
2018-05-17T12:36:05.855Z,91.64
2018-05-17T12:37:14.846Z,92.11
2018-05-17T12:38:23.687Z,91.45
2018-05-17T12:39:32.830Z,91.25
2018-05-17T12:40:42.326Z,91.35
2018-05-17T12:41:51.189Z,90.97
2018-05-17T12:43:00.094Z,90.92
2018-05-17T12:44:09.249Z,91.78
2018-05-17T12:45:18.399Z,91.74
2018-05-17T12:46:27.412Z,92.21
2018-05-17T12:47:36.555Z,91.64
2018-05-17T12:48:45.421Z,91.11
2018-05-17T12:49:54.848Z,91.11
2018-05-17T12:51:03.710Z,91.02
2018-05-17T12:52:12.572Z,92.07
2018-05-17T12:53:21.715Z,91.78
2018-05-17T12:54:30.855Z,91.11
2018-05-17T12:55:39.720Z,91.02
2018-05-17T12:56:48.905Z,91.2
2018-05-17T12:57:57.773Z,90.92
2018-05-17T12:59:07.207Z,91.11
2018-05-17T13:00:16.074Z,91.39
2018-05-17T13:01:24.943Z,91.68
2018-05-17T13:02:33.806Z,91.97
2018-05-17T13:03:42.820Z,91.97
2018-05-17T13:04:51.683Z,91.88
2018-05-17T13:06:00.824Z,92.21
2018-05-17T13:07:09.690Z,92.59
2018-05-17T13:08:18.554Z,91.78
2018-05-17T13:09:28.401Z,91.39
2018-05-17T13:10:37.272Z,91.02
2018-05-17T13:11:46.413Z,91.02
2018-05-17T13:12:55.285Z,91.3
2018-05-17T13:14:04.144Z,91.3
2018-05-17T13:15:13.618Z,90.92
2018-05-17T13:16:22.533Z,91.02
2018-05-17T13:17:31.400Z,90.92
2018-05-17T13:18:40.538Z,90.25
2018-05-17T13:19:49.404Z,89.96
2018-05-17T13:20:58.320Z,90.63
2018-05-17T13:22:07.737Z,91.3
2018-05-17T13:23:16.600Z,91.2
2018-05-17T13:24:26.019Z,90.44
2018-05-17T13:25:34.882Z,90.73
2018-05-17T13:26:44.097Z,90.82
2018-05-17T13:27:53.243Z,90.53
2018-05-17T13:29:02.114Z,91.02
2018-05-17T13:30:11.272Z,90.73
2018-05-17T13:31:20.123Z,90.25
2018-05-17T13:32:29.037Z,90.3
2018-05-17T13:33:37.899Z,91.39
2018-05-17T13:34:46.762Z,91.39
2018-05-17T13:35:55.633Z,91.02
2018-05-17T13:37:04.492Z,91.02
2018-05-17T13:38:13.787Z,91.11
2018-05-17T13:39:22.947Z,90.63
2018-05-17T13:40:31.814Z,91.3
2018-05-17T13:41:40.682Z,91.2
2018-05-17T13:42:49.817Z,91.02
2018-05-17T13:43:58.956Z,91.59
2018-05-17T13:45:07.821Z,91.97
2018-05-17T13:46:16.962Z,91.88
2018-05-17T13:47:26.224Z,92.07
2018-05-17T13:48:35.090Z,92.35
2018-05-17T13:49:44.301Z,92.25
2018-05-17T13:50:53.460Z,92.74
2018-05-17T13:52:02.318Z,92.16
2018-05-17T13:53:11.458Z,92.07
2018-05-17T13:54:20.601Z,92.07
2018-05-17T13:55:30.290Z,91.49
2018-05-17T13:56:39.813Z,90.92
2018-05-17T13:57:48.963Z,91.39
2018-05-17T13:58:58.109Z,91.68
2018-05-17T14:00:06.975Z,91.88
2018-05-17T14:01:16.087Z,91.59
2018-05-17T14:02:25.282Z,91.11
2018-05-17T14:03:34.897Z,91.11
2018-05-17T14:04:43.759Z,90.82
2018-05-17T14:05:52.909Z,91.53
2018-05-17T14:07:02.061Z,91.2
2018-05-17T14:08:11.203Z,91.3
2018-05-17T14:09:20.067Z,91.88
2018-05-17T14:10:29.220Z,91.73
2018-05-17T14:11:38.085Z,91.25
2018-05-17T14:12:46.948Z,90.87
2018-05-17T14:13:55.810Z,91.16
2018-05-17T14:15:04.673Z,91.88
2018-05-17T14:16:13.537Z,92.07
2018-05-17T14:17:22.696Z,92.25
2018-05-17T14:18:31.913Z,91.78
2018-05-17T14:19:40.780Z,91.63
2018-05-17T14:20:49.647Z,91.44
2018-05-17T14:21:58.512Z,90.77
2018-05-17T14:23:07.478Z,90.87
2018-05-17T14:24:16.727Z,91.16
2018-05-17T14:25:25.867Z,90.77
2018-05-17T14:26:34.734Z,91.78
2018-05-17T14:27:43.879Z,91.68
2018-05-17T14:28:52.740Z,91.88
2018-05-17T14:30:01.960Z,91.68
2018-05-17T14:31:11.383Z,91.97
2018-05-17T14:32:20.246Z,91.78
2018-05-17T14:33:29.110Z,91.78
2018-05-17T14:34:37.979Z,91.25
2018-05-17T14:35:47.272Z,91.73
2018-05-17T14:36:56.139Z,91.39
2018-05-17T14:38:05.009Z,91.97
2018-05-17T14:39:13.913Z,91.59
2018-05-17T14:40:22.773Z,92.25
2018-05-17T14:41:31.789Z,91.68
2018-05-17T14:42:40.665Z,92.25
2018-05-17T14:43:49.541Z,92.54
2018-05-17T14:44:58.684Z,92.74
2018-05-17T14:46:07.588Z,93.12
2018-05-17T14:47:16.460Z,93.55
2018-05-17T14:48:25.658Z,92.93
2018-05-17T14:49:34.619Z,93.12
2018-05-17T14:50:43.599Z,92.93
2018-05-17T14:51:52.460Z,93.5